sensor_id;sensor_type;location;lat;lon;timestamp;P1;durP1;ratioP1;P2;durP2;ratioP2
11125;SDS011;5617;54.046;10.676;2023-12-14T00:00:09;2.90;;;1.50;;
11125;SDS011;5617;54.046;10.676;2023-12-14T00:02:18;1.90;;;1.33;;
11125;SDS011;5617;54.046;10.676;2023-12-14T00:04:28;2.30;;;1.40;;
11125;SDS011;5617;54.046;10.676;2023-12-14T00:06:36;2.10;;;1.50;;
11125;SDS011;5617;54.046;10.676;2023-12-14T00:08:45;2.70;;;1.80;;
11125;SDS011;5617;54.046;10.676;2023-12-14T00:10:52;2.43;;;1.30;;
11125;SDS011;5617;54.046;10.676;2023-12-14T00:13:01;2.43;;;1.67;;
11125;SDS011;5617;54.046;10.676;2023-12-14T00:15:11;2.57;;;1.43;;
11125;SDS011;5617;54.046;10.676;2023-12-14T00:17:19;3.03;;;1.63;;
11125;SDS011;5617;54.046;10.676;2023-12-14T00:19:29;4.17;;;1.90;;
11125;SDS011;5617;54.046;10.676;2023-12-14T00:21:37;1.57;;;1.37;;
11125;SDS011;5617;54.046;10.676;2023-12-14T00:23:45;3.23;;;2.00;;
11125;SDS011;5617;54.046;10.676;2023-12-14T00:25:53;2.57;;;1.80;;
11125;SDS011;5617;54.046;10.676;2023-12-14T00:28:02;3.07;;;1.57;;
11125;SDS011;5617;54.046;10.676;2023-12-14T00:30:11;2.53;;;1.50;;
11125;SDS011;5617;54.046;10.676;2023-12-14T00:32:20;2.53;;;1.63;;
11125;SDS011;5617;54.046;10.676;2023-12-14T00:34:28;3.17;;;1.40;;
11125;SDS011;5617;54.046;10.676;2023-12-14T00:36:37;1.77;;;1.43;;
11125;SDS011;5617;54.046;10.676;2023-12-14T00:38:45;1.87;;;1.40;;
11125;SDS011;5617;54.046;10.676;2023-12-14T00:40:54;2.23;;;1.50;;
11125;SDS011;5617;54.046;10.676;2023-12-14T00:43:02;2.77;;;1.50;;
11125;SDS011;5617;54.046;10.676;2023-12-14T00:45:10;2.93;;;1.50;;
11125;SDS011;5617;54.046;10.676;2023-12-14T00:47:18;3.20;;;1.60;;
11125;SDS011;5617;54.046;10.676;2023-12-14T00:49:27;2.97;;;1.40;;
11125;SDS011;5617;54.046;10.676;2023-12-14T00:51:36;3.17;;;1.43;;
11125;SDS011;5617;54.046;10.676;2023-12-14T00:53:45;3.47;;;1.73;;
11125;SDS011;5617;54.046;10.676;2023-12-14T00:55:53;3.47;;;1.40;;
11125;SDS011;5617;54.046;10.676;2023-12-14T00:58:02;1.10;;;1.00;;
11125;SDS011;5617;54.046;10.676;2023-12-14T01:00:10;2.27;;;1.37;;
11125;SDS011;5617;54.046;10.676;2023-12-14T01:02:19;1.43;;;1.30;;
11125;SDS011;5617;54.046;10.676;2023-12-14T01:04:29;2.23;;;1.50;;
11125;SDS011;5617;54.046;10.676;2023-12-14T01:06:38;2.50;;;1.50;;
11125;SDS011;5617;54.046;10.676;2023-12-14T01:08:46;2.33;;;1.40;;
11125;SDS011;5617;54.046;10.676;2023-12-14T01:10:54;2.80;;;1.40;;
11125;SDS011;5617;54.046;10.676;2023-12-14T01:13:03;3.37;;;1.17;;
11125;SDS011;5617;54.046;10.676;2023-12-14T01:15:11;3.70;;;1.73;;
11125;SDS011;5617;54.046;10.676;2023-12-14T01:17:19;4.50;;;1.37;;
11125;SDS011;5617;54.046;10.676;2023-12-14T01:19:29;3.90;;;1.70;;
11125;SDS011;5617;54.046;10.676;2023-12-14T01:21:37;2.40;;;1.20;;
11125;SDS011;5617;54.046;10.676;2023-12-14T01:23:46;2.50;;;1.47;;
11125;SDS011;5617;54.046;10.676;2023-12-14T01:25:54;2.60;;;1.20;;
11125;SDS011;5617;54.046;10.676;2023-12-14T01:28:02;2.73;;;1.50;;
11125;SDS011;5617;54.046;10.676;2023-12-14T01:30:11;2.53;;;1.10;;
11125;SDS011;5617;54.046;10.676;2023-12-14T01:32:22;1.90;;;1.63;;
11125;SDS011;5617;54.046;10.676;2023-12-14T01:34:31;2.67;;;1.40;;
11125;SDS011;5617;54.046;10.676;2023-12-14T01:36:39;1.90;;;0.90;;
11125;SDS011;5617;54.046;10.676;2023-12-14T01:38:49;2.03;;;1.40;;
11125;SDS011;5617;54.046;10.676;2023-12-14T01:40:58;1.90;;;1.30;;
11125;SDS011;5617;54.046;10.676;2023-12-14T01:43:06;1.80;;;1.30;;
11125;SDS011;5617;54.046;10.676;2023-12-14T01:45:16;2.40;;;1.23;;
11125;SDS011;5617;54.046;10.676;2023-12-14T01:47:25;1.50;;;1.40;;
11125;SDS011;5617;54.046;10.676;2023-12-14T01:49:34;2.43;;;1.20;;
11125;SDS011;5617;54.046;10.676;2023-12-14T01:51:43;2.67;;;1.30;;
11125;SDS011;5617;54.046;10.676;2023-12-14T01:53:51;3.07;;;1.83;;
11125;SDS011;5617;54.046;10.676;2023-12-14T01:55:59;2.70;;;1.10;;
11125;SDS011;5617;54.046;10.676;2023-12-14T01:58:08;4.47;;;1.40;;
11125;SDS011;5617;54.046;10.676;2023-12-14T02:00:19;2.77;;;1.43;;
11125;SDS011;5617;54.046;10.676;2023-12-14T02:02:33;3.00;;;1.50;;
11125;SDS011;5617;54.046;10.676;2023-12-14T02:04:44;2.73;;;1.40;;
11125;SDS011;5617;54.046;10.676;2023-12-14T02:06:52;1.93;;;1.03;;
11125;SDS011;5617;54.046;10.676;2023-12-14T02:09:00;1.33;;;1.20;;
11125;SDS011;5617;54.046;10.676;2023-12-14T02:11:10;1.37;;;1.07;;
11125;SDS011;5617;54.046;10.676;2023-12-14T02:13:19;1.17;;;1.03;;
11125;SDS011;5617;54.046;10.676;2023-12-14T02:15:27;3.93;;;1.70;;
11125;SDS011;5617;54.046;10.676;2023-12-14T02:17:36;3.03;;;1.40;;
11125;SDS011;5617;54.046;10.676;2023-12-14T02:19:45;3.90;;;1.50;;
11125;SDS011;5617;54.046;10.676;2023-12-14T02:21:54;1.93;;;1.20;;
11125;SDS011;5617;54.046;10.676;2023-12-14T02:24:04;2.77;;;1.23;;
11125;SDS011;5617;54.046;10.676;2023-12-14T02:26:12;3.43;;;1.40;;
11125;SDS011;5617;54.046;10.676;2023-12-14T02:28:21;3.53;;;1.40;;
11125;SDS011;5617;54.046;10.676;2023-12-14T02:30:29;3.17;;;1.50;;
11125;SDS011;5617;54.046;10.676;2023-12-14T02:32:37;3.20;;;1.30;;
11125;SDS011;5617;54.046;10.676;2023-12-14T02:34:46;1.70;;;1.50;;
11125;SDS011;5617;54.046;10.676;2023-12-14T02:36:54;2.43;;;1.43;;
11125;SDS011;5617;54.046;10.676;2023-12-14T02:39:04;2.00;;;1.70;;
11125;SDS011;5617;54.046;10.676;2023-12-14T02:41:12;3.27;;;1.27;;
11125;SDS011;5617;54.046;10.676;2023-12-14T02:43:20;2.87;;;1.63;;
11125;SDS011;5617;54.046;10.676;2023-12-14T02:45:30;4.13;;;1.77;;
11125;SDS011;5617;54.046;10.676;2023-12-14T02:47:38;2.37;;;1.70;;
11125;SDS011;5617;54.046;10.676;2023-12-14T02:49:47;3.70;;;1.87;;
11125;SDS011;5617;54.046;10.676;2023-12-14T02:51:55;3.23;;;1.60;;
11125;SDS011;5617;54.046;10.676;2023-12-14T02:54:04;2.33;;;1.67;;
11125;SDS011;5617;54.046;10.676;2023-12-14T02:56:13;4.23;;;2.10;;
11125;SDS011;5617;54.046;10.676;2023-12-14T02:58:24;2.43;;;1.90;;
11125;SDS011;5617;54.046;10.676;2023-12-14T03:00:32;3.03;;;1.90;;
11125;SDS011;5617;54.046;10.676;2023-12-14T03:02:40;4.50;;;2.40;;
11125;SDS011;5617;54.046;10.676;2023-12-14T03:04:49;3.13;;;2.30;;
11125;SDS011;5617;54.046;10.676;2023-12-14T03:06:57;3.33;;;2.13;;
11125;SDS011;5617;54.046;10.676;2023-12-14T03:09:10;3.00;;;1.97;;
11125;SDS011;5617;54.046;10.676;2023-12-14T03:11:21;5.47;;;2.67;;
11125;SDS011;5617;54.046;10.676;2023-12-14T03:13:30;3.80;;;2.40;;
11125;SDS011;5617;54.046;10.676;2023-12-14T03:15:38;4.60;;;2.23;;
11125;SDS011;5617;54.046;10.676;2023-12-14T03:17:50;3.03;;;2.03;;
11125;SDS011;5617;54.046;10.676;2023-12-14T03:19:58;2.97;;;1.83;;
11125;SDS011;5617;54.046;10.676;2023-12-14T03:22:07;2.33;;;2.07;;
11125;SDS011;5617;54.046;10.676;2023-12-14T03:24:17;3.77;;;2.13;;
11125;SDS011;5617;54.046;10.676;2023-12-14T03:26:25;3.23;;;2.40;;
11125;SDS011;5617;54.046;10.676;2023-12-14T03:28:34;3.93;;;2.40;;
11125;SDS011;5617;54.046;10.676;2023-12-14T03:30:44;4.77;;;2.90;;
11125;SDS011;5617;54.046;10.676;2023-12-14T03:32:53;4.00;;;3.10;;
11125;SDS011;5617;54.046;10.676;2023-12-14T03:35:01;3.43;;;2.60;;
11125;SDS011;5617;54.046;10.676;2023-12-14T03:37:09;4.93;;;2.80;;
11125;SDS011;5617;54.046;10.676;2023-12-14T03:39:19;3.10;;;2.63;;
11125;SDS011;5617;54.046;10.676;2023-12-14T03:41:27;4.07;;;2.30;;
11125;SDS011;5617;54.046;10.676;2023-12-14T03:43:36;6.30;;;2.60;;
11125;SDS011;5617;54.046;10.676;2023-12-14T03:45:44;3.33;;;2.30;;
11125;SDS011;5617;54.046;10.676;2023-12-14T03:47:53;3.90;;;2.73;;
11125;SDS011;5617;54.046;10.676;2023-12-14T03:50:00;4.07;;;2.63;;
11125;SDS011;5617;54.046;10.676;2023-12-14T03:52:09;6.13;;;3.20;;
11125;SDS011;5617;54.046;10.676;2023-12-14T03:54:17;4.27;;;2.70;;
11125;SDS011;5617;54.046;10.676;2023-12-14T03:56:27;3.87;;;2.60;;
11125;SDS011;5617;54.046;10.676;2023-12-14T03:58:35;3.07;;;2.77;;
11125;SDS011;5617;54.046;10.676;2023-12-14T04:00:43;4.10;;;2.77;;
11125;SDS011;5617;54.046;10.676;2023-12-14T04:02:52;5.53;;;3.10;;
11125;SDS011;5617;54.046;10.676;2023-12-14T04:05:00;4.77;;;2.43;;
11125;SDS011;5617;54.046;10.676;2023-12-14T04:07:09;4.83;;;2.80;;
11125;SDS011;5617;54.046;10.676;2023-12-14T04:09:18;4.47;;;3.00;;
11125;SDS011;5617;54.046;10.676;2023-12-14T04:11:27;4.37;;;2.77;;
11125;SDS011;5617;54.046;10.676;2023-12-14T04:13:35;3.67;;;2.53;;
11125;SDS011;5617;54.046;10.676;2023-12-14T04:15:45;4.07;;;2.67;;
11125;SDS011;5617;54.046;10.676;2023-12-14T04:17:53;3.87;;;2.80;;
11125;SDS011;5617;54.046;10.676;2023-12-14T04:20:02;4.43;;;2.70;;
11125;SDS011;5617;54.046;10.676;2023-12-14T04:22:13;6.13;;;2.90;;
11125;SDS011;5617;54.046;10.676;2023-12-14T04:24:21;4.93;;;3.07;;
11125;SDS011;5617;54.046;10.676;2023-12-14T04:26:31;4.13;;;3.20;;
11125;SDS011;5617;54.046;10.676;2023-12-14T04:28:39;4.80;;;3.20;;
11125;SDS011;5617;54.046;10.676;2023-12-14T04:30:50;4.70;;;2.77;;
11125;SDS011;5617;54.046;10.676;2023-12-14T04:32:58;5.53;;;3.53;;
11125;SDS011;5617;54.046;10.676;2023-12-14T04:35:06;5.33;;;3.23;;
11125;SDS011;5617;54.046;10.676;2023-12-14T04:37:15;4.80;;;3.40;;
11125;SDS011;5617;54.046;10.676;2023-12-14T04:39:23;5.77;;;3.50;;
11125;SDS011;5617;54.046;10.676;2023-12-14T04:41:33;6.23;;;3.40;;
11125;SDS011;5617;54.046;10.676;2023-12-14T04:43:40;6.33;;;3.53;;
11125;SDS011;5617;54.046;10.676;2023-12-14T04:45:48;4.47;;;3.03;;
11125;SDS011;5617;54.046;10.676;2023-12-14T04:47:55;4.30;;;3.40;;
11125;SDS011;5617;54.046;10.676;2023-12-14T04:50:04;5.60;;;3.80;;
11125;SDS011;5617;54.046;10.676;2023-12-14T04:52:12;3.53;;;3.23;;
11125;SDS011;5617;54.046;10.676;2023-12-14T04:54:23;5.67;;;3.17;;
11125;SDS011;5617;54.046;10.676;2023-12-14T04:56:31;6.10;;;3.50;;
11125;SDS011;5617;54.046;10.676;2023-12-14T04:58:41;5.70;;;3.60;;
11125;SDS011;5617;54.046;10.676;2023-12-14T05:00:49;7.70;;;3.53;;
11125;SDS011;5617;54.046;10.676;2023-12-14T05:02:57;7.33;;;3.60;;
11125;SDS011;5617;54.046;10.676;2023-12-14T05:05:06;6.93;;;3.80;;
11125;SDS011;5617;54.046;10.676;2023-12-14T05:07:14;8.57;;;3.77;;
11125;SDS011;5617;54.046;10.676;2023-12-14T05:09:22;5.17;;;3.73;;
11125;SDS011;5617;54.046;10.676;2023-12-14T05:11:30;5.80;;;3.73;;
11125;SDS011;5617;54.046;10.676;2023-12-14T05:13:40;5.60;;;3.70;;
11125;SDS011;5617;54.046;10.676;2023-12-14T05:15:48;7.20;;;3.70;;
11125;SDS011;5617;54.046;10.676;2023-12-14T05:17:56;5.97;;;3.70;;
11125;SDS011;5617;54.046;10.676;2023-12-14T05:20:07;8.17;;;3.60;;
11125;SDS011;5617;54.046;10.676;2023-12-14T05:22:15;6.43;;;3.77;;
11125;SDS011;5617;54.046;10.676;2023-12-14T05:24:24;4.50;;;3.50;;
11125;SDS011;5617;54.046;10.676;2023-12-14T05:26:32;8.60;;;4.20;;
11125;SDS011;5617;54.046;10.676;2023-12-14T05:28:43;5.47;;;3.70;;
11125;SDS011;5617;54.046;10.676;2023-12-14T05:30:52;6.03;;;4.30;;
11125;SDS011;5617;54.046;10.676;2023-12-14T05:33:00;5.90;;;3.30;;
11125;SDS011;5617;54.046;10.676;2023-12-14T05:35:08;4.63;;;3.53;;
11125;SDS011;5617;54.046;10.676;2023-12-14T05:37:17;4.80;;;3.47;;
11125;SDS011;5617;54.046;10.676;2023-12-14T05:39:27;6.40;;;3.73;;
11125;SDS011;5617;54.046;10.676;2023-12-14T05:41:39;4.93;;;3.53;;
11125;SDS011;5617;54.046;10.676;2023-12-14T05:43:50;6.30;;;3.83;;
11125;SDS011;5617;54.046;10.676;2023-12-14T05:45:58;7.10;;;3.73;;
11125;SDS011;5617;54.046;10.676;2023-12-14T05:48:07;3.80;;;3.00;;
11125;SDS011;5617;54.046;10.676;2023-12-14T05:50:16;4.73;;;3.33;;
11125;SDS011;5617;54.046;10.676;2023-12-14T05:52:24;6.57;;;3.30;;
11125;SDS011;5617;54.046;10.676;2023-12-14T05:54:32;7.87;;;3.30;;
11125;SDS011;5617;54.046;10.676;2023-12-14T05:56:40;4.80;;;3.03;;
11125;SDS011;5617;54.046;10.676;2023-12-14T05:58:48;7.17;;;3.90;;
11125;SDS011;5617;54.046;10.676;2023-12-14T06:00:57;6.23;;;3.37;;
11125;SDS011;5617;54.046;10.676;2023-12-14T06:03:05;4.57;;;3.30;;
11125;SDS011;5617;54.046;10.676;2023-12-14T06:05:14;5.23;;;3.40;;
11125;SDS011;5617;54.046;10.676;2023-12-14T06:07:22;6.20;;;3.40;;
11125;SDS011;5617;54.046;10.676;2023-12-14T06:09:30;6.37;;;3.57;;
11125;SDS011;5617;54.046;10.676;2023-12-14T06:11:40;5.23;;;3.30;;
11125;SDS011;5617;54.046;10.676;2023-12-14T06:13:48;5.33;;;3.80;;
11125;SDS011;5617;54.046;10.676;2023-12-14T06:15:57;4.80;;;3.60;;
11125;SDS011;5617;54.046;10.676;2023-12-14T06:18:08;7.03;;;3.50;;
11125;SDS011;5617;54.046;10.676;2023-12-14T06:20:16;4.60;;;3.43;;
11125;SDS011;5617;54.046;10.676;2023-12-14T06:22:24;5.20;;;3.13;;
11125;SDS011;5617;54.046;10.676;2023-12-14T06:24:33;5.23;;;3.77;;
11125;SDS011;5617;54.046;10.676;2023-12-14T06:26:43;4.33;;;3.60;;
11125;SDS011;5617;54.046;10.676;2023-12-14T06:28:54;5.10;;;3.30;;
11125;SDS011;5617;54.046;10.676;2023-12-14T06:31:04;5.50;;;3.77;;
11125;SDS011;5617;54.046;10.676;2023-12-14T06:33:12;4.43;;;3.63;;
11125;SDS011;5617;54.046;10.676;2023-12-14T06:35:21;5.47;;;3.67;;
11125;SDS011;5617;54.046;10.676;2023-12-14T06:37:29;6.07;;;3.33;;
11125;SDS011;5617;54.046;10.676;2023-12-14T06:39:36;4.67;;;3.50;;
11125;SDS011;5617;54.046;10.676;2023-12-14T06:41:44;5.67;;;3.50;;
11125;SDS011;5617;54.046;10.676;2023-12-14T06:43:55;4.33;;;3.50;;
11125;SDS011;5617;54.046;10.676;2023-12-14T06:46:05;5.63;;;3.70;;
11125;SDS011;5617;54.046;10.676;2023-12-14T06:48:13;5.00;;;3.63;;
11125;SDS011;5617;54.046;10.676;2023-12-14T06:50:21;7.10;;;3.80;;
11125;SDS011;5617;54.046;10.676;2023-12-14T06:52:29;6.93;;;3.40;;
11125;SDS011;5617;54.046;10.676;2023-12-14T06:54:38;5.20;;;3.67;;
11125;SDS011;5617;54.046;10.676;2023-12-14T06:56:46;5.13;;;3.60;;
11125;SDS011;5617;54.046;10.676;2023-12-14T06:58:54;6.87;;;3.77;;
11125;SDS011;5617;54.046;10.676;2023-12-14T07:01:02;4.80;;;3.70;;
11125;SDS011;5617;54.046;10.676;2023-12-14T07:03:12;6.07;;;3.90;;
11125;SDS011;5617;54.046;10.676;2023-12-14T07:05:24;5.83;;;3.90;;
11125;SDS011;5617;54.046;10.676;2023-12-14T07:07:32;6.83;;;3.70;;
11125;SDS011;5617;54.046;10.676;2023-12-14T07:09:41;4.63;;;3.73;;
11125;SDS011;5617;54.046;10.676;2023-12-14T07:11:52;5.27;;;3.50;;
11125;SDS011;5617;54.046;10.676;2023-12-14T07:14:00;6.10;;;4.03;;
11125;SDS011;5617;54.046;10.676;2023-12-14T07:16:10;5.80;;;3.90;;
11125;SDS011;5617;54.046;10.676;2023-12-14T07:18:19;6.50;;;3.47;;
11125;SDS011;5617;54.046;10.676;2023-12-14T07:20:27;6.73;;;3.67;;
11125;SDS011;5617;54.046;10.676;2023-12-14T07:22:35;7.87;;;3.83;;
11125;SDS011;5617;54.046;10.676;2023-12-14T07:24:43;5.57;;;3.70;;
11125;SDS011;5617;54.046;10.676;2023-12-14T07:26:59;5.33;;;3.70;;
11125;SDS011;5617;54.046;10.676;2023-12-14T07:29:07;4.53;;;3.90;;
11125;SDS011;5617;54.046;10.676;2023-12-14T07:31:17;6.00;;;3.97;;
11125;SDS011;5617;54.046;10.676;2023-12-14T07:33:25;4.17;;;3.73;;
11125;SDS011;5617;54.046;10.676;2023-12-14T07:35:33;5.90;;;3.80;;
11125;SDS011;5617;54.046;10.676;2023-12-14T07:37:42;6.40;;;3.83;;
11125;SDS011;5617;54.046;10.676;2023-12-14T07:39:51;5.80;;;3.90;;
11125;SDS011;5617;54.046;10.676;2023-12-14T07:41:59;6.03;;;4.07;;
11125;SDS011;5617;54.046;10.676;2023-12-14T07:44:07;15.73;;;4.60;;
11125;SDS011;5617;54.046;10.676;2023-12-14T07:46:17;5.70;;;3.90;;
11125;SDS011;5617;54.046;10.676;2023-12-14T07:48:25;6.80;;;4.13;;
11125;SDS011;5617;54.046;10.676;2023-12-14T07:50:36;4.67;;;3.83;;
11125;SDS011;5617;54.046;10.676;2023-12-14T07:52:44;6.37;;;3.60;;
11125;SDS011;5617;54.046;10.676;2023-12-14T07:54:55;6.67;;;4.67;;
11125;SDS011;5617;54.046;10.676;2023-12-14T07:57:03;8.97;;;4.50;;
11125;SDS011;5617;54.046;10.676;2023-12-14T07:59:11;7.97;;;4.50;;
11125;SDS011;5617;54.046;10.676;2023-12-14T08:01:21;5.97;;;4.20;;
11125;SDS011;5617;54.046;10.676;2023-12-14T08:03:29;9.37;;;4.37;;
11125;SDS011;5617;54.046;10.676;2023-12-14T08:05:37;7.03;;;4.10;;
11125;SDS011;5617;54.046;10.676;2023-12-14T08:07:45;5.03;;;4.00;;
11125;SDS011;5617;54.046;10.676;2023-12-14T08:09:53;7.30;;;4.07;;
11125;SDS011;5617;54.046;10.676;2023-12-14T08:12:02;6.20;;;4.07;;
11125;SDS011;5617;54.046;10.676;2023-12-14T08:14:10;5.23;;;3.70;;
11125;SDS011;5617;54.046;10.676;2023-12-14T08:16:20;5.53;;;3.90;;
11125;SDS011;5617;54.046;10.676;2023-12-14T08:18:31;5.87;;;3.83;;
11125;SDS011;5617;54.046;10.676;2023-12-14T08:20:39;6.50;;;4.13;;
11125;SDS011;5617;54.046;10.676;2023-12-14T08:22:47;8.27;;;4.53;;
11125;SDS011;5617;54.046;10.676;2023-12-14T08:24:56;7.13;;;4.50;;
11125;SDS011;5617;54.046;10.676;2023-12-14T08:27:04;4.90;;;4.00;;
11125;SDS011;5617;54.046;10.676;2023-12-14T08:29:11;6.87;;;4.40;;
11125;SDS011;5617;54.046;10.676;2023-12-14T08:31:21;6.53;;;4.43;;
11125;SDS011;5617;54.046;10.676;2023-12-14T08:33:29;8.07;;;4.20;;
11125;SDS011;5617;54.046;10.676;2023-12-14T08:35:37;4.50;;;3.90;;
11125;SDS011;5617;54.046;10.676;2023-12-14T08:37:45;6.27;;;3.87;;
11125;SDS011;5617;54.046;10.676;2023-12-14T08:39:53;7.97;;;4.73;;
11125;SDS011;5617;54.046;10.676;2023-12-14T08:42:02;6.90;;;4.30;;
11125;SDS011;5617;54.046;10.676;2023-12-14T08:44:10;6.40;;;4.37;;
11125;SDS011;5617;54.046;10.676;2023-12-14T08:46:18;7.27;;;4.70;;
11125;SDS011;5617;54.046;10.676;2023-12-14T08:48:28;5.33;;;4.53;;
11125;SDS011;5617;54.046;10.676;2023-12-14T08:50:36;5.37;;;4.03;;
11125;SDS011;5617;54.046;10.676;2023-12-14T08:52:44;5.33;;;3.73;;
11125;SDS011;5617;54.046;10.676;2023-12-14T08:54:53;4.63;;;3.70;;
11125;SDS011;5617;54.046;10.676;2023-12-14T08:57:00;4.20;;;3.43;;
11125;SDS011;5617;54.046;10.676;2023-12-14T08:59:08;4.27;;;3.77;;
11125;SDS011;5617;54.046;10.676;2023-12-14T09:01:19;4.93;;;3.40;;
11125;SDS011;5617;54.046;10.676;2023-12-14T09:03:31;5.10;;;3.50;;
11125;SDS011;5617;54.046;10.676;2023-12-14T09:05:40;4.07;;;3.40;;
11125;SDS011;5617;54.046;10.676;2023-12-14T09:07:49;6.23;;;3.43;;
11125;SDS011;5617;54.046;10.676;2023-12-14T09:10:01;8.37;;;4.17;;
11125;SDS011;5617;54.046;10.676;2023-12-14T09:12:10;5.53;;;3.60;;
11125;SDS011;5617;54.046;10.676;2023-12-14T09:14:18;6.57;;;3.90;;
11125;SDS011;5617;54.046;10.676;2023-12-14T09:16:27;5.60;;;3.70;;
11125;SDS011;5617;54.046;10.676;2023-12-14T09:18:36;6.47;;;4.60;;
11125;SDS011;5617;54.046;10.676;2023-12-14T09:20:44;6.70;;;4.00;;
11125;SDS011;5617;54.046;10.676;2023-12-14T09:22:52;5.70;;;4.07;;
11125;SDS011;5617;54.046;10.676;2023-12-14T09:25:02;7.23;;;5.07;;
11125;SDS011;5617;54.046;10.676;2023-12-14T09:27:11;6.00;;;4.60;;
11125;SDS011;5617;54.046;10.676;2023-12-14T09:29:19;7.33;;;4.80;;
11125;SDS011;5617;54.046;10.676;2023-12-14T09:31:27;5.47;;;3.90;;
11125;SDS011;5617;54.046;10.676;2023-12-14T09:33:38;7.83;;;3.77;;
11125;SDS011;5617;54.046;10.676;2023-12-14T09:35:45;5.37;;;3.60;;
11125;SDS011;5617;54.046;10.676;2023-12-14T09:37:55;6.40;;;3.67;;
11125;SDS011;5617;54.046;10.676;2023-12-14T09:40:04;5.57;;;3.67;;
11125;SDS011;5617;54.046;10.676;2023-12-14T09:42:14;5.57;;;3.80;;
11125;SDS011;5617;54.046;10.676;2023-12-14T09:44:25;6.77;;;3.73;;
11125;SDS011;5617;54.046;10.676;2023-12-14T09:46:34;4.80;;;4.00;;
11125;SDS011;5617;54.046;10.676;2023-12-14T09:48:45;5.53;;;4.00;;
11125;SDS011;5617;54.046;10.676;2023-12-14T09:50:54;5.27;;;3.97;;
11125;SDS011;5617;54.046;10.676;2023-12-14T09:53:02;7.00;;;3.93;;
11125;SDS011;5617;54.046;10.676;2023-12-14T09:55:10;5.00;;;4.07;;
11125;SDS011;5617;54.046;10.676;2023-12-14T09:57:18;5.53;;;4.00;;
11125;SDS011;5617;54.046;10.676;2023-12-14T09:59:27;5.63;;;3.87;;
11125;SDS011;5617;54.046;10.676;2023-12-14T10:01:35;6.00;;;3.67;;
11125;SDS011;5617;54.046;10.676;2023-12-14T10:03:43;7.97;;;4.77;;
11125;SDS011;5617;54.046;10.676;2023-12-14T10:05:53;7.53;;;4.27;;
11125;SDS011;5617;54.046;10.676;2023-12-14T10:08:03;5.43;;;4.10;;
11125;SDS011;5617;54.046;10.676;2023-12-14T10:10:13;6.17;;;4.40;;
11125;SDS011;5617;54.046;10.676;2023-12-14T10:12:22;5.30;;;4.60;;
11125;SDS011;5617;54.046;10.676;2023-12-14T10:14:31;6.17;;;4.00;;
11125;SDS011;5617;54.046;10.676;2023-12-14T10:16:39;4.80;;;3.93;;
11125;SDS011;5617;54.046;10.676;2023-12-14T10:18:49;5.43;;;4.30;;
11125;SDS011;5617;54.046;10.676;2023-12-14T10:20:58;6.73;;;4.33;;
11125;SDS011;5617;54.046;10.676;2023-12-14T10:23:06;9.97;;;5.10;;
11125;SDS011;5617;54.046;10.676;2023-12-14T10:25:17;7.83;;;4.60;;
11125;SDS011;5617;54.046;10.676;2023-12-14T10:27:33;4.90;;;4.17;;
11125;SDS011;5617;54.046;10.676;2023-12-14T10:29:42;5.27;;;4.10;;
11125;SDS011;5617;54.046;10.676;2023-12-14T10:31:51;6.37;;;4.00;;
11125;SDS011;5617;54.046;10.676;2023-12-14T10:34:01;9.50;;;4.70;;
11125;SDS011;5617;54.046;10.676;2023-12-14T10:36:09;6.80;;;4.07;;
11125;SDS011;5617;54.046;10.676;2023-12-14T10:38:18;6.60;;;4.20;;
11125;SDS011;5617;54.046;10.676;2023-12-14T10:40:27;7.07;;;4.40;;
11125;SDS011;5617;54.046;10.676;2023-12-14T10:42:37;5.90;;;4.50;;
11125;SDS011;5617;54.046;10.676;2023-12-14T10:44:51;6.43;;;4.10;;
11125;SDS011;5617;54.046;10.676;2023-12-14T10:47:08;5.17;;;4.27;;
11125;SDS011;5617;54.046;10.676;2023-12-14T10:49:17;7.57;;;4.50;;
11125;SDS011;5617;54.046;10.676;2023-12-14T10:51:26;4.87;;;3.77;;
11125;SDS011;5617;54.046;10.676;2023-12-14T10:53:39;7.03;;;4.60;;
11125;SDS011;5617;54.046;10.676;2023-12-14T10:55:49;6.60;;;4.33;;
11125;SDS011;5617;54.046;10.676;2023-12-14T10:57:58;6.87;;;6.00;;
11125;SDS011;5617;54.046;10.676;2023-12-14T11:00:08;5.43;;;4.13;;
11125;SDS011;5617;54.046;10.676;2023-12-14T11:02:17;4.50;;;3.83;;
11125;SDS011;5617;54.046;10.676;2023-12-14T11:04:27;3.97;;;3.57;;
11125;SDS011;5617;54.046;10.676;2023-12-14T11:06:35;4.53;;;3.60;;
11125;SDS011;5617;54.046;10.676;2023-12-14T11:08:44;5.03;;;3.73;;
11125;SDS011;5617;54.046;10.676;2023-12-14T11:10:53;3.83;;;3.43;;
11125;SDS011;5617;54.046;10.676;2023-12-14T11:13:07;3.20;;;2.90;;
11125;SDS011;5617;54.046;10.676;2023-12-14T11:15:17;4.20;;;3.20;;
11125;SDS011;5617;54.046;10.676;2023-12-14T11:17:26;5.10;;;3.67;;
11125;SDS011;5617;54.046;10.676;2023-12-14T11:19:37;4.30;;;3.20;;
11125;SDS011;5617;54.046;10.676;2023-12-14T11:21:45;3.80;;;3.10;;
11125;SDS011;5617;54.046;10.676;2023-12-14T11:23:52;3.07;;;2.60;;
11125;SDS011;5617;54.046;10.676;2023-12-14T11:26:01;2.63;;;2.33;;
11125;SDS011;5617;54.046;10.676;2023-12-14T11:28:10;3.20;;;2.90;;
11125;SDS011;5617;54.046;10.676;2023-12-14T11:30:20;5.83;;;3.00;;
11125;SDS011;5617;54.046;10.676;2023-12-14T11:32:30;3.90;;;3.13;;
11125;SDS011;5617;54.046;10.676;2023-12-14T11:34:40;3.37;;;2.53;;
11125;SDS011;5617;54.046;10.676;2023-12-14T11:36:48;3.57;;;2.87;;
11125;SDS011;5617;54.046;10.676;2023-12-14T11:38:56;4.93;;;2.70;;
11125;SDS011;5617;54.046;10.676;2023-12-14T11:41:05;4.63;;;2.60;;
11125;SDS011;5617;54.046;10.676;2023-12-14T11:43:13;4.03;;;2.87;;
11125;SDS011;5617;54.046;10.676;2023-12-14T11:45:22;3.67;;;2.60;;
11125;SDS011;5617;54.046;10.676;2023-12-14T11:47:30;3.57;;;2.60;;
11125;SDS011;5617;54.046;10.676;2023-12-14T11:49:40;6.43;;;2.73;;
11125;SDS011;5617;54.046;10.676;2023-12-14T11:51:50;4.13;;;2.80;;
11125;SDS011;5617;54.046;10.676;2023-12-14T11:54:00;6.07;;;2.67;;
11125;SDS011;5617;54.046;10.676;2023-12-14T11:56:09;5.17;;;2.80;;
11125;SDS011;5617;54.046;10.676;2023-12-14T11:58:17;4.10;;;2.80;;
11125;SDS011;5617;54.046;10.676;2023-12-14T12:00:26;4.13;;;3.00;;
11125;SDS011;5617;54.046;10.676;2023-12-14T12:02:38;3.30;;;2.30;;
11125;SDS011;5617;54.046;10.676;2023-12-14T12:04:50;4.93;;;2.87;;
11125;SDS011;5617;54.046;10.676;2023-12-14T12:06:59;3.23;;;2.90;;
11125;SDS011;5617;54.046;10.676;2023-12-14T12:09:08;4.17;;;2.70;;
11125;SDS011;5617;54.046;10.676;2023-12-14T12:11:17;5.40;;;3.10;;
11125;SDS011;5617;54.046;10.676;2023-12-14T12:13:29;4.33;;;3.13;;
11125;SDS011;5617;54.046;10.676;2023-12-14T12:15:37;4.57;;;3.23;;
11125;SDS011;5617;54.046;10.676;2023-12-14T12:17:45;2.83;;;2.60;;
11125;SDS011;5617;54.046;10.676;2023-12-14T12:19:54;3.77;;;2.90;;
11125;SDS011;5617;54.046;10.676;2023-12-14T12:22:02;4.70;;;2.90;;
11125;SDS011;5617;54.046;10.676;2023-12-14T12:24:11;4.07;;;2.90;;
11125;SDS011;5617;54.046;10.676;2023-12-14T12:26:33;4.07;;;2.90;;
11125;SDS011;5617;54.046;10.676;2023-12-14T12:28:41;2.90;;;2.60;;
11125;SDS011;5617;54.046;10.676;2023-12-14T12:30:49;4.13;;;3.00;;
11125;SDS011;5617;54.046;10.676;2023-12-14T12:32:57;3.80;;;3.00;;
11125;SDS011;5617;54.046;10.676;2023-12-14T12:35:10;5.70;;;3.37;;
11125;SDS011;5617;54.046;10.676;2023-12-14T12:37:17;5.60;;;2.77;;
11125;SDS011;5617;54.046;10.676;2023-12-14T12:39:27;3.13;;;2.83;;
11125;SDS011;5617;54.046;10.676;2023-12-14T12:41:35;4.23;;;3.13;;
11125;SDS011;5617;54.046;10.676;2023-12-14T12:43:44;3.33;;;2.70;;
11125;SDS011;5617;54.046;10.676;2023-12-14T12:45:52;3.33;;;2.40;;
11125;SDS011;5617;54.046;10.676;2023-12-14T12:48:00;4.90;;;2.70;;
11125;SDS011;5617;54.046;10.676;2023-12-14T12:50:12;5.30;;;2.90;;
11125;SDS011;5617;54.046;10.676;2023-12-14T12:52:21;3.00;;;2.60;;
11125;SDS011;5617;54.046;10.676;2023-12-14T12:54:30;4.93;;;3.20;;
11125;SDS011;5617;54.046;10.676;2023-12-14T12:56:39;3.30;;;2.87;;